Time;durP1;ratioP1;P1;durP2;ratioP2;P2;SDS_P1;SDS_P2;PMS_P1;PMS_P2;Temp;Humidity;BMP_temperature;BMP_pressure;BME280_temperature;BME280_humidity;BME280_pressure;Samples;Min_cycle;Max_cycle;Signal;HPM_P1;HPM_P2
2023/04/07 00:01:27;;;;;;;;;2.50;0.50;;;;;13.27;53.87;101295.16;6249407;22;47637;-67
2023/04/07 00:03:53;;;;;;;;;1.00;1.00;;;;;13.22;54.15;101295.28;6277642;22;45168;-67
2023/04/07 00:06:18;;;;;;;;;2.00;0.50;;;;;13.29;54.44;101314.72;6277767;22;45438;-67
2023/04/07 00:08:43;;;;;;;;;0.75;0.75;;;;;13.30;54.57;101321.84;6250130;22;45231;-67
2023/04/07 00:11:09;;;;;;;;;1.00;1.00;;;;;13.25;54.91;101310.41;6277849;22;45315;-66
2023/04/07 00:13:34;;;;;;;;;0.50;0.50;;;;;13.21;54.76;101298.03;6276175;22;45161;-67
2023/04/07 00:15:59;;;;;;;;;1.25;1.00;;;;;13.24;54.84;101303.28;6277191;22;45285;-66
2023/04/07 00:18:25;;;;;;;;;3.50;1.50;;;;;13.18;54.98;101304.38;6277251;22;45406;-67
2023/04/07 00:20:50;;;;;;;;;4.00;1.00;;;;;13.20;55.13;101326.66;6277384;22;45517;-67
2023/04/07 00:23:16;;;;;;;;;1.75;1.00;;;;;13.03;55.10;101304.88;6277502;22;45291;-67
2023/04/07 00:25:41;;;;;;;;;1.00;1.00;;;;;13.11;55.25;101313.53;6277874;22;45243;-67
2023/04/07 00:28:06;;;;;;;;;2.25;1.00;;;;;13.09;55.40;101310.91;6277008;22;45315;-67
2023/04/07 00:30:32;;;;;;;;;2.00;0.75;;;;;13.09;55.48;101302.00;6275283;22;47066;-67
2023/04/07 00:32:57;;;;;;;;;1.50;0.50;;;;;12.92;55.57;101278.47;6249271;22;46217;-67
2023/04/07 00:35:22;;;;;;;;;1.00;0.00;;;;;13.04;55.51;101301.28;6277933;22;45273;-66
2023/04/07 00:37:48;;;;;;;;;2.00;1.00;;;;;13.00;55.58;101295.16;6249452;22;45311;-66
2023/04/07 00:40:13;;;;;;;;;1.00;1.00;;;;;13.05;55.83;101320.00;6249845;22;47008;-67
2023/04/07 00:42:38;;;;;;;;;1.75;1.00;;;;;12.95;55.79;101295.31;6249297;22;45626;-66
2023/04/07 00:45:05;;;;;;;;;1.00;1.00;;;;;13.04;55.79;101304.84;6276398;22;45623;-67
2023/04/07 00:47:30;;;;;;;;;4.50;2.00;;;;;12.94;55.76;101288.19;6275936;22;45394;-67
2023/04/07 00:49:56;;;;;;;;;4.00;0.50;;;;;12.97;55.85;101287.22;6249573;22;46431;-66
2023/04/07 00:52:27;;;;;;;;;1.50;0.00;;;;;13.01;56.05;101293.34;6275288;22;45340;-67
2023/04/07 00:54:53;;;;;;;;;2.00;1.00;;;;;13.00;55.96;101294.25;6276961;22;45339;-67
2023/04/07 00:57:19;;;;;;;;;1.00;0.00;;;;;12.90;56.21;101286.56;6249471;22;45402;-66
2023/04/07 00:59:44;;;;;;;;;2.50;1.00;;;;;12.89;56.49;101289.28;6277129;22;45414;-67
2023/04/07 01:02:17;;;;;;;;;1.00;1.00;;;;;12.87;56.32;101291.13;6249319;22;45383;-66
2023/04/07 01:04:50;;;;;;;;;2.00;1.50;;;;;12.81;56.36;101285.97;6249625;22;45414;-67
2023/04/07 01:07:22;;;;;;;;;1.75;1.75;;;;;12.87;57.02;101292.00;6277265;22;45273;-66
2023/04/07 01:09:56;;;;;;;;;3.50;2.50;;;;;12.88;56.53;101300.91;6277352;22;45331;-67
2023/04/07 01:12:38;;;;;;;;;1.25;0.75;;;;;12.90;56.46;101291.91;6277247;22;45252;-67
2023/04/07 01:15:08;;;;;;;;;1.25;1.00;;;;;12.80;56.56;101279.75;6248936;22;45822;-67
2023/04/07 01:17:36;;;;;;;;;3.00;1.00;;;;;12.82;56.43;101282.38;6249380;22;45387;-66
2023/04/07 01:20:06;;;;;;;;;2.00;1.25;;;;;12.87;56.50;101283.97;6249993;22;45670;-67
2023/04/07 01:22:39;;;;;;;;;1.00;1.00;;;;;12.81;56.61;101273.44;6276896;22;45538;-67
2023/04/07 01:25:34;;;;;;;;;4.75;2.75;;;;;12.97;56.51;101296.13;6277454;22;45426;-67
2023/04/07 01:28:09;;;;;;;;;3.50;2.00;;;;;12.97;56.59;101284.53;6276776;22;45347;-67
2023/04/07 01:30:38;;;;;;;;;3.00;1.50;;;;;12.88;56.62;101277.69;6248829;22;46435;-67
2023/04/07 01:33:05;;;;;;;;;2.00;1.25;;;;;12.97;56.62;101296.13;6249355;22;45471;-67
2023/04/07 01:35:33;;;;;;;;;4.25;2.00;;;;;12.91;56.62;101285.63;6249489;22;45394;-67
2023/04/07 01:37:59;;;;;;;;;1.00;1.00;;;;;12.95;56.94;101302.47;6249407;22;45433;-67
2023/04/07 01:40:26;;;;;;;;;3.00;1.75;;;;;12.96;56.45;101294.38;6249224;22;48143;-67
2023/04/07 01:42:53;;;;;;;;;1.00;1.00;;;;;12.86;57.05;101284.88;6276882;22;45277;-67
2023/04/07 01:45:19;;;;;;;;;2.50;2.00;;;;;12.91;56.91;101299.03;6276788;22;45498;-67
2023/04/07 01:47:46;;;;;;;;;1.25;1.00;;;;;12.81;57.04;101284.16;6276524;22;45419;-67
2023/04/07 01:50:12;;;;;;;;;1.50;1.25;;;;;12.86;57.05;101289.38;6249694;22;45371;-66
2023/04/07 01:52:39;;;;;;;;;1.75;1.25;;;;;12.89;57.01;101298.19;6248392;22;45587;-67
2023/04/07 01:55:05;;;;;;;;;2.00;0.00;;;;;12.85;57.18;101291.19;6249170;22;45413;-67
2023/04/07 01:57:31;;;;;;;;;3.00;1.75;;;;;12.82;57.23;101293.97;6277903;22;45400;-66
2023/04/07 01:59:56;;;;;;;;;4.00;2.25;;;;;12.84;57.15;101288.56;6278107;22;45319;-67
2023/04/07 02:02:21;;;;;;;;;5.00;1.25;;;;;12.82;57.26;101291.28;6277821;22;45235;-67
2023/04/07 02:04:51;;;;;;;;;3.00;1.00;;;;;12.88;57.07;101296.44;6278327;22;45534;-67
2023/04/07 02:07:38;;;;;;;;;3.25;2.00;;;;;12.83;57.08;101287.69;6278036;22;45260;-67
2023/04/07 02:10:07;;;;;;;;;1.25;1.00;;;;;12.90;57.23;101316.03;6278308;22;45510;-66
2023/04/07 02:12:36;;;;;;;;;1.50;1.50;;;;;12.79;57.58;101292.25;6278180;22;45264;-66
2023/04/07 02:15:02;;;;;;;;;1.00;1.00;;;;;12.75;57.42;101285.25;6249785;22;45811;-66
2023/04/07 02:17:32;;;;;;;;;2.50;2.00;;;;;12.80;57.60;101298.50;6277549;22;45315;-67
2023/04/07 02:19:59;;;;;;;;;2.00;0.50;;;;;12.74;57.28;101291.53;6277848;22;45968;-67
2023/04/07 02:22:26;;;;;;;;;3.25;1.00;;;;;12.79;57.55;101302.09;6250503;22;45464;-67
2023/04/07 02:24:51;;;;;;;;;3.75;1.25;;;;;12.70;57.54;101300.59;6278488;22;45541;-67
2023/04/07 02:27:17;;;;;;;;;4.50;1.00;;;;;12.46;57.73;101262.06;6277937;22;45577;-67
2023/04/07 02:29:42;;;;;;;;;4.00;2.75;;;;;12.68;57.77;101304.25;6276050;22;47227;-67
2023/04/07 02:32:08;;;;;;;;;2.25;1.25;;;;;12.68;57.49;101296.19;6277751;22;45300;-67
2023/04/07 02:34:33;;;;;;;;;3.75;3.00;;;;;12.69;58.11;101297.97;6278313;22;45348;-67
2023/04/07 02:36:58;;;;;;;;;1.75;1.00;;;;;12.72;57.86;101308.59;6278264;22;45324;-67
2023/04/07 02:39:24;;;;;;;;;1.25;1.25;;;;;12.73;58.03;101313.00;6276252;22;47005;-67
2023/04/07 02:41:49;;;;;;;;;2.50;2.00;;;;;12.69;57.88;101309.53;6277811;22;45346;-67
2023/04/07 02:44:15;;;;;;;;;0.00;0.00;;;;;12.64;57.96;101292.75;6250584;22;45436;-67
2023/04/07 02:46:40;;;;;;;;;7.00;3.00;;;;;12.69;58.22;101301.50;6249051;22;45469;-67
2023/04/07 02:49:06;;;;;;;;;2.25;2.00;;;;;12.67;58.08;101294.47;6277362;22;45327;-67
2023/04/07 02:51:31;;;;;;;;;4.00;3.00;;;;;12.70;58.18;101300.59;6278271;22;45322;-67
2023/04/07 02:53:56;;;;;;;;;4.00;2.00;;;;;12.66;57.95;101277.50;6278379;22;45245;-67
2023/04/07 02:56:22;;;;;;;;;2.50;2.00;;;;;12.57;58.35;101276.00;6278102;22;45232;-67
2023/04/07 02:58:47;;;;;;;;;4.25;2.00;;;;;12.71;58.22;101288.06;6277628;22;45269;-67
2023/04/07 03:01:12;;;;;;;;;2.00;2.00;;;;;12.65;58.39;101281.13;6277727;22;45232;-66
2023/04/07 03:03:38;;;;;;;;;2.25;1.00;;;;;12.47;58.36;101262.97;6278261;22;45487;-67
2023/04/07 03:06:04;;;;;;;;;1.50;1.50;;;;;12.56;58.46;101279.63;6278037;22;45284;-67
2023/04/07 03:08:29;;;;;;;;;2.00;2.00;;;;;12.52;58.61;101277.94;6276569;22;45274;-67
2023/04/07 03:10:55;;;;;;;;;4.25;1.25;;;;;12.51;58.42;101281.56;6277510;22;45342;-67
2023/04/07 03:13:20;;;;;;;;;2.00;2.00;;;;;12.57;58.64;101297.44;6275858;22;45717;-67
2023/04/07 03:15:46;;;;;;;;;2.25;2.25;;;;;12.47;58.79;101274.53;6277678;22;45340;-67
2023/04/07 03:18:11;;;;;;;;;3.50;3.00;;;;;12.38;58.74;101267.69;6249584;22;47238;-67
2023/04/07 03:20:37;;;;;;;;;1.00;1.00;;;;;12.42;59.02;101273.81;6277840;22;45531;-67
2023/04/07 03:23:03;;;;;;;;;3.25;1.75;;;;;12.47;59.06;101290.63;6278072;22;45374;-67
2023/04/07 03:25:28;;;;;;;;;2.50;1.00;;;;;12.37;58.86;101275.78;6249998;22;45316;-67
2023/04/07 03:27:53;;;;;;;;;2.00;1.50;;;;;12.34;58.97;101268.69;6277325;22;45366;-67
2023/04/07 03:30:19;;;;;;;;;3.00;2.25;;;;;12.30;59.23;101274.22;6277627;22;45427;-67
2023/04/07 03:32:45;;;;;;;;;3.00;1.75;;;;;12.28;59.18;101289.44;6277912;22;45382;-67
2023/04/07 03:35:10;;;;;;;;;3.00;3.00;;;;;12.27;59.22;101283.19;6277432;22;51214;-67
2023/04/07 03:37:35;;;;;;;;;2.00;1.00;;;;;12.27;59.49;101295.72;6277374;22;45391;-67
2023/04/07 03:40:01;;;;;;;;;2.00;2.00;;;;;12.23;59.59;101298.50;6277618;22;45296;-67
2023/04/07 03:42:26;;;;;;;;;4.00;2.00;;;;;12.25;59.80;101292.22;6277881;22;45470;-67
2023/04/07 03:44:52;;;;;;;;;2.50;2.00;;;;;12.13;59.71;101288.09;6275246;22;45642;-67
2023/04/07 03:47:17;;;;;;;;;3.25;2.50;;;;;12.15;60.08;101295.16;6223966;22;46952;-67
2023/04/07 03:49:42;;;;;;;;;2.75;2.75;;;;;11.91;60.02;101258.41;6277198;22;45199;-67
2023/04/07 03:52:08;;;;;;;;;6.00;3.00;;;;;12.12;59.97;101299.75;6249948;22;45430;-67
2023/04/07 03:54:34;;;;;;;;;4.75;2.00;;;;;12.04;60.28;101289.25;6278092;22;45259;-66
2023/04/07 03:57:00;;;;;;;;;4.75;2.25;;;;;12.05;60.46;101302.59;6275252;22;48288;-67
2023/04/07 03:59:26;;;;;;;;;3.75;2.50;;;;;11.98;60.50;101287.66;6277468;22;45240;-67
2023/04/07 04:01:51;;;;;;;;;4.00;2.25;;;;;12.03;60.17;101295.53;6278204;22;45240;-66
2023/04/07 04:04:17;;;;;;;;;2.50;1.25;;;;;12.02;60.27;101296.44;6277893;22;45543;-66
2023/04/07 04:06:42;;;;;;;;;1.00;1.00;;;;;11.96;60.49;101297.53;6277038;22;47509;-66
2023/04/07 04:09:07;;;;;;;;;3.50;2.25;;;;;11.86;60.78;101275.47;6277307;22;45303;-67
2023/04/07 04:11:33;;;;;;;;;2.00;2.00;;;;;11.64;60.85;101244.91;6277871;22;45316;-67
2023/04/07 04:13:58;;;;;;;;;2.75;2.00;;;;;11.92;60.69;101298.50;6277541;22;45561;-66
2023/04/07 04:16:23;;;;;;;;;2.50;1.00;;;;;11.93;60.69;101296.72;6277154;22;45308;-66
2023/04/07 04:18:49;;;;;;;;;4.50;2.00;;;;;11.90;60.73;101294.97;6275308;22;53458;-66
2023/04/07 04:21:14;;;;;;;;;4.00;2.00;;;;;11.70;60.22;101262.59;6277982;22;45389;-67
2023/04/07 04:23:39;;;;;;;;;5.50;3.00;;;;;11.91;60.55;101303.88;6275393;22;45591;-67
2023/04/07 04:26:05;;;;;;;;;3.50;3.50;;;;;11.94;60.82;101311.84;6277266;22;56515;-66
2023/04/07 04:28:30;;;;;;;;;3.75;1.50;;;;;11.72;60.71;101280.34;6276981;22;46424;-66
2023/04/07 04:30:55;;;;;;;;;3.00;3.00;;;;;11.76;60.17;101294.50;6277447;22;45681;-66
2023/04/07 04:33:21;;;;;;;;;1.75;1.75;;;;;11.81;60.60;101305.94;6250107;22;45636;-67
2023/04/07 04:35:46;;;;;;;;;3.00;2.00;;;;;11.87;60.57;101316.47;6275328;22;46855;-67
2023/04/07 04:38:11;;;;;;;;;2.50;2.00;;;;;11.93;60.61;101327.03;6276480;22;45319;-66
2023/04/07 04:40:37;;;;;;;;;3.25;1.75;;;;;11.91;60.90;101322.59;6275983;22;45306;-67
2023/04/07 04:43:05;;;;;;;;;3.25;2.00;;;;;11.89;60.82;101322.63;6277196;22;45219;-66
2023/04/07 04:45:32;;;;;;;;;2.50;1.00;;;;;11.86;60.91;101320.03;6275138;22;45916;-66
2023/04/07 04:47:57;;;;;;;;;6.25;5.25;;;;;11.86;60.63;101326.31;6276673;22;45434;-67
2023/04/07 04:50:22;;;;;;;;;3.50;2.50;;;;;11.74;60.83;101313.25;6277594;22;45347;-67
2023/04/07 04:52:48;;;;;;;;;2.00;2.00;;;;;11.76;60.89;101313.22;6277467;22;45485;-66
2023/04/07 04:55:13;;;;;;;;;3.00;3.00;;;;;11.75;60.92;101322.19;6277314;22;46222;-67
2023/04/07 04:57:38;;;;;;;;;3.25;3.25;;;;;11.76;61.08;101324.81;6276542;22;51019;-66
2023/04/07 05:00:06;;;;;;;;;2.75;2.00;;;;;11.79;60.93;101332.72;6275148;22;45446;-67
2023/04/07 05:02:32;;;;;;;;;9.00;4.00;;;;;11.79;61.15;101332.72;6277509;22;45327;-67
2023/04/07 05:04:57;;;;;;;;;4.00;3.00;;;;;11.68;61.21;101322.34;6277392;22;45572;-67
2023/04/07 05:07:23;;;;;;;;;3.00;3.00;;;;;11.67;60.83;101331.25;6249125;22;45474;-67
2023/04/07 05:09:48;;;;;;;;;2.00;2.00;;;;;11.59;61.00;101321.69;6248725;22;45274;-67
2023/04/07 05:12:14;;;;;;;;;3.00;3.00;;;;;11.58;61.50;101326.19;6277059;22;45244;-67
2023/04/07 05:14:39;;;;;;;;;3.75;2.00;;;;;11.61;61.41;101330.56;6248931;22;46767;-67
2023/04/07 05:17:05;;;;;;;;;4.00;4.00;;;;;11.58;60.88;101328.00;6277128;22;45248;-66
2023/04/07 05:19:31;;;;;;;;;4.75;3.50;;;;;11.54;61.22;101316.47;6249011;22;45296;-66
2023/04/07 05:21:56;;;;;;;;;3.00;3.00;;;;;11.57;61.06;101321.75;6275461;22;45189;-67
2023/04/07 05:24:22;;;;;;;;;4.00;3.00;;;;;11.68;61.44;101342.88;6277053;22;45576;-67
2023/04/07 05:26:47;;;;;;;;;9.25;5.00;;;;;11.66;61.38;101336.66;6276602;22;45274;-67
2023/04/07 05:29:12;;;;;;;;;5.25;4.00;;;;;11.55;61.57;101320.91;6249206;22;45345;-67
2023/04/07 05:31:39;;;;;;;;;4.25;3.25;;;;;11.50;61.38;101312.16;6278119;22;45369;-67
2023/04/07 05:34:04;;;;;;;;;3.00;2.00;;;;;11.43;61.49;101302.53;6278655;22;46607;-67
2023/04/07 05:36:30;;;;;;;;;9.00;6.00;;;;;11.58;61.72;101330.66;6278941;22;45264;-69
2023/04/07 05:38:55;;;;;;;;;5.50;5.00;;;;;11.56;61.54;101340.50;6251894;22;45341;-71
2023/04/07 05:41:21;;;;;;;;;5.50;4.25;;;;;11.55;61.62;101344.97;6280097;22;45451;-68
2023/04/07 05:43:46;;;;;;;;;5.25;4.75;;;;;11.50;61.71;101347.78;6279437;22;45474;-67
2023/04/07 05:46:12;;;;;;;;;4.25;4.00;;;;;11.23;61.71;101298.59;6251713;22;45682;-67
2023/04/07 05:48:37;;;;;;;;;9.75;5.50;;;;;11.56;61.90;101354.78;6279413;22;45197;-67
2023/04/07 05:51:02;;;;;;;;;4.00;4.00;;;;;11.45;61.68;101333.66;6276638;22;45628;-67
2023/04/07 05:53:28;;;;;;;;;5.00;5.00;;;;;11.31;61.66;101301.09;6275439;22;46966;-67
2023/04/07 05:55:53;;;;;;;;;7.50;4.00;;;;;11.52;61.59;101330.81;6279269;22;45264;-67
2023/04/07 05:58:19;;;;;;;;;4.00;4.00;;;;;11.64;61.76;101349.19;6280379;22;45256;-67
2023/04/07 06:00:44;;;;;;;;;6.50;6.00;;;;;11.58;61.85;101346.72;6279862;22;45400;-67
2023/04/07 06:03:10;;;;;;;;;6.75;6.50;;;;;11.37;61.63;101310.72;6252310;22;47742;-67
2023/04/07 06:05:35;;;;;;;;;7.50;5.25;;;;;11.37;61.88;101310.72;6250985;22;45651;-66
2023/04/07 06:08:00;;;;;;;;;5.75;5.00;;;;;11.54;61.90;101348.56;6252022;22;45346;-67
2023/04/07 06:10:26;;;;;;;;;5.75;4.50;;;;;11.56;61.84;101352.09;6280034;22;45473;-67
2023/04/07 06:12:51;;;;;;;;;4.75;4.50;;;;;11.47;61.70;101331.81;6251848;22;48506;-67
2023/04/07 06:15:16;;;;;;;;;5.25;5.00;;;;;11.64;61.70;101355.44;6279016;22;45204;-67
2023/04/07 06:17:44;;;;;;;;;6.00;5.25;;;;;11.66;61.40;101364.28;6276474;22;45369;-67
2023/04/07 06:20:10;;;;;;;;;8.75;5.00;;;;;11.61;61.67;101359.97;6280034;22;45404;-67
2023/04/07 06:22:35;;;;;;;;;7.25;5.75;;;;;11.55;61.40;101344.13;6275548;22;47783;-67
2023/04/07 06:25:01;;;;;;;;;6.00;6.00;;;;;11.57;61.66;101350.28;6276380;22;45426;-66
2023/04/07 06:27:27;;;;;;;;;6.50;6.00;;;;;11.73;61.49;101375.72;6278225;22;45459;-67
2023/04/07 06:29:52;;;;;;;;;9.00;6.00;;;;;11.71;61.93;101372.19;6251815;22;45521;-66
2023/04/07 06:32:18;;;;;;;;;6.50;6.50;;;;;11.74;61.38;101389.94;6277708;22;46200;-67
2023/04/07 06:34:43;;;;;;;;;9.25;5.75;;;;;11.66;61.56;101375.00;6276147;22;45466;-66
2023/04/07 06:37:08;;;;;;;;;5.50;5.50;;;;;11.75;61.59;101391.72;6272519;22;45602;-66
2023/04/07 06:39:34;;;;;;;;;6.75;6.00;;;;;11.71;61.72;101396.28;6277414;22;45391;-66
2023/04/07 06:42:00;;;;;;;;;7.50;6.00;;;;;11.63;61.85;101388.44;6276296;22;45662;-66
2023/04/07 06:44:26;;;;;;;;;10.00;7.75;;;;;11.59;61.77;101393.91;6277244;22;45409;-66
2023/04/07 06:46:52;;;;;;;;;6.75;6.50;;;;;11.62;61.84;101396.50;6249033;22;45299;-66
2023/04/07 06:49:18;;;;;;;;;7.00;6.00;;;;;11.58;61.50;101379.66;6276830;22;45446;-66
2023/04/07 06:51:43;;;;;;;;;12.00;9.50;;;;;11.66;61.61;101409.75;6275970;22;46024;-66
2023/04/07 06:54:12;;;;;;;;;8.25;6.75;;;;;11.57;61.86;101385.91;6277733;22;45577;-66
2023/04/07 06:56:41;;;;;;;;;5.00;5.00;;;;;11.66;61.63;101416.88;6274576;22;45339;-67
2023/04/07 06:59:06;;;;;;;;;11.75;11.00;;;;;11.62;61.65;101407.19;6274206;22;45847;-66
2023/04/07 07:01:32;;;;;;;;;8.50;8.50;;;;;11.69;61.40;101424.81;6277389;22;46081;-67
2023/04/07 07:03:59;;;;;;;;;10.00;6.50;;;;;11.71;61.77;101420.34;6248903;22;45450;-66
2023/04/07 07:06:25;;;;;;;;;12.50;10.25;;;;;11.71;61.37;101425.69;6277268;22;45413;-67
2023/04/07 07:08:50;;;;;;;;;10.50;7.75;;;;;11.72;61.79;101421.22;6275128;22;45346;-66
2023/04/07 07:11:16;;;;;;;;;7.00;4.75;;;;;11.69;61.65;101419.47;6247794;22;45982;-67
2023/04/07 07:13:41;;;;;;;;;11.75;8.25;;;;;11.76;61.66;101423.78;6244972;22;45522;-66
2023/04/07 07:16:06;;;;;;;;;10.75;9.00;;;;;11.73;61.26;101418.50;6274921;22;45499;-66
2023/04/07 07:18:32;;;;;;;;;8.75;8.75;;;;;11.67;61.80;101405.28;6249007;22;45448;-67
2023/04/07 07:20:57;;;;;;;;;9.00;9.00;;;;;11.60;61.65;101401.03;6249872;22;48039;-67
2023/04/07 07:23:23;;;;;;;;;8.50;7.25;;;;;11.82;61.33;101431.63;6277679;22;45255;-67
2023/04/07 07:25:48;;;;;;;;;10.00;8.00;;;;;11.70;61.38;101417.72;6277557;22;45345;-67
2023/04/07 07:28:13;;;;;;;;;11.25;10.25;;;;;11.80;61.44;101425.44;6275519;22;45685;-66
2023/04/07 07:30:40;;;;;;;;;11.25;11.25;;;;;11.84;60.92;101435.16;6248935;22;46853;-67
2023/04/07 07:33:06;;;;;;;;;11.25;10.75;;;;;11.95;60.77;101442.03;6275314;22;45631;-67
2023/04/07 07:35:31;;;;;;;;;11.50;9.25;;;;;11.98;61.19;101448.19;6277961;22;45272;-67
2023/04/07 07:37:57;;;;;;;;;12.75;11.25;;;;;11.98;61.09;101442.81;6275025;22;45485;-67
2023/04/07 07:40:22;;;;;;;;;28.25;20.50;;;;;11.92;60.74;101434.97;6277522;22;45451;-67
2023/04/07 07:42:48;;;;;;;;;14.50;10.25;;;;;12.03;61.08;101448.06;6277191;22;45606;-67
2023/04/07 07:45:13;;;;;;;;;10.75;6.50;;;;;12.00;60.67;101440.97;6277195;22;45319;-67
2023/04/07 07:47:39;;;;;;;;;12.00;10.50;;;;;11.97;60.39;101419.66;6249453;22;45323;-67
2023/04/07 07:50:05;;;;;;;;;12.00;12.00;;;;;12.06;60.20;101429.22;6276397;22;46538;-66
2023/04/07 07:52:31;;;;;;;;;11.50;10.00;;;;;12.15;59.95;101434.34;6248922;22;45323;-67
2023/04/07 07:54:56;;;;;;;;;13.25;8.25;;;;;12.17;60.22;101431.63;6275078;22;45350;-66
2023/04/07 07:57:21;;;;;;;;;10.75;9.75;;;;;12.27;60.42;101453.66;6249263;22;45370;-67
2023/04/07 07:59:47;;;;;;;;;11.75;10.75;;;;;12.28;60.04;101450.94;6274957;22;47274;-68
2023/04/07 08:02:12;;;;;;;;;10.50;10.00;;;;;12.21;60.00;101430.59;6249537;22;45310;-69
2023/04/07 08:04:38;;;;;;;;;13.00;11.75;;;;;12.21;59.88;101431.50;6249876;22;45336;-67
2023/04/07 08:07:03;;;;;;;;;6.75;6.75;;;;;12.16;59.55;101429.84;6277211;22;45256;-67
2023/04/07 08:09:30;;;;;;;;;11.50;11.25;;;;;12.08;60.01;101416.69;6249672;22;47274;-67
2023/04/07 08:11:56;;;;;;;;;12.00;11.25;;;;;12.15;59.84;101426.31;6277089;22;45185;-67
2023/04/07 08:14:21;;;;;;;;;17.00;12.25;;;;;12.33;59.34;101464.16;6277194;22;45197;-67
2023/04/07 08:16:46;;;;;;;;;14.25;11.25;;;;;12.22;60.02;101440.38;6277101;22;45260;-67
2023/04/07 08:19:12;;;;;;;;;13.00;11.50;;;;;12.39;60.01;101464.00;6249653;22;46111;-67
2023/04/07 08:21:38;;;;;;;;;15.25;12.75;;;;;12.33;59.51;101446.31;6276537;22;45323;-67
2023/04/07 08:24:04;;;;;;;;;14.00;12.25;;;;;12.46;59.62;101462.91;6275522;22;45392;-67
2023/04/07 08:26:30;;;;;;;;;12.00;9.25;;;;;12.45;59.57;101450.44;6276903;22;45358;-66
2023/04/07 08:28:55;;;;;;;;;12.00;12.00;;;;;12.30;59.50;101421.44;6277052;22;46122;-67
2023/04/07 08:31:20;;;;;;;;;15.75;13.50;;;;;12.43;59.59;101444.28;6276478;22;45366;-67
2023/04/07 08:33:46;;;;;;;;;12.00;9.25;;;;;12.50;59.50;101453.00;6277539;22;45256;-68
2023/04/07 08:36:11;;;;;;;;;15.25;12.00;;;;;12.66;59.27;101461.44;6276926;22;45487;-65
2023/04/07 08:38:37;;;;;;;;;13.25;13.25;;;;;12.47;59.33;101421.81;6276633;22;46197;-70
2023/04/07 08:41:43;;;;;;;;;12.25;11.50;;;;;12.70;59.30;101458.63;6277673;22;45289;-68
2023/04/07 08:44:09;;;;;;;;;16.50;15.75;;;;;12.45;59.22;101421.00;6248954;22;45303;-69
2023/04/07 08:46:37;;;;;;;;;12.75;12.25;;;;;12.74;59.12;101452.25;6276932;22;45208;-68
2023/04/07 08:49:08;;;;;;;;;14.50;12.25;;;;;12.82;58.95;101469.91;6275916;22;45382;-67
2023/04/07 08:51:36;;;;;;;;;13.75;13.00;;;;;12.73;58.81;101445.16;6275179;22;45506;-68
2023/04/07 08:54:13;;;;;;;;;12.75;11.75;;;;;12.83;58.84;101458.25;6276740;22;45217;-67
2023/04/07 08:56:40;;;;;;;;;20.75;14.50;;;;;12.85;59.12;101462.66;6276479;22;45342;-67
2023/04/07 08:59:07;;;;;;;;;14.75;13.25;;;;;12.92;59.05;101458.84;6276687;22;45398;-67
2023/04/07 09:01:34;;;;;;;;;14.25;12.00;;;;;13.01;58.95;101475.59;6249311;22;45519;-67
2023/04/07 09:04:05;;;;;;;;;14.00;13.75;;;;;13.03;58.53;101461.22;6249589;22;45261;-67
2023/04/07 09:06:31;;;;;;;;;12.00;9.00;;;;;12.84;58.01;101428.75;6275512;22;45354;-67
2023/04/07 09:09:00;;;;;;;;;20.50;16.00;;;;;13.11;58.74;101471.69;6276964;22;46322;-67
2023/04/07 09:11:27;;;;;;;;;14.75;13.00;;;;;13.12;58.23;101468.97;6277350;22;45500;-67
2023/04/07 09:13:54;;;;;;;;;15.25;14.75;;;;;13.23;58.12;101484.72;6276305;22;45381;-70
2023/04/07 09:16:19;;;;;;;;;17.00;14.50;;;;;13.19;58.33;101475.00;6274858;22;45294;-67
2023/04/07 09:18:45;;;;;;;;;11.50;10.50;;;;;13.23;58.24;101474.00;6276540;22;46328;-67
2023/04/07 09:21:10;;;;;;;;;15.50;14.50;;;;;13.11;58.09;101445.78;6276130;22;45382;-68
2023/04/07 09:23:40;;;;;;;;;12.25;8.50;;;;;13.33;57.54;101474.59;6276364;22;45328;-67
2023/04/07 09:26:20;;;;;;;;;11.25;10.00;;;;;13.45;57.64;101490.31;6248727;22;45291;-65
2023/04/07 09:28:49;;;;;;;;;15.25;14.50;;;;;13.31;57.32;101468.38;6276410;22;45418;-66
2023/04/07 09:31:15;;;;;;;;;13.00;13.00;;;;;13.27;57.51;101445.28;6276313;22;45450;-69
2023/04/07 09:33:41;;;;;;;;;11.50;10.50;;;;;13.50;57.17;101477.63;6277254;22;45367;-67
2023/04/07 09:36:06;;;;;;;;;17.00;14.25;;;;;13.58;57.04;101485.44;6276448;22;45311;-67
2023/04/07 09:38:36;;;;;;;;;10.00;9.75;;;;;13.54;56.69;101470.34;6275946;22;45968;-68
2023/04/07 09:41:13;;;;;;;;;11.25;10.00;;;;;13.60;56.35;101472.84;6277276;22;45427;-67
2023/04/07 09:43:44;;;;;;;;;12.50;11.50;;;;;13.64;56.55;101478.97;6276410;22;45207;-67
2023/04/07 09:46:10;;;;;;;;;19.50;16.25;;;;;13.75;56.44;101486.63;6275990;22;45339;-68
2023/04/07 09:48:36;;;;;;;;;13.75;10.00;;;;;13.68;56.11;101484.19;6275793;22;47394;-67
2023/04/07 09:51:10;;;;;;;;;8.50;7.75;;;;;13.67;55.81;101478.88;6275897;22;45339;-67
2023/04/07 09:53:44;;;;;;;;;13.50;11.50;;;;;13.62;55.87;101470.09;6276100;22;45434;-67
2023/04/07 09:56:13;;;;;;;;;14.00;11.00;;;;;13.75;55.09;101497.38;6276584;22;45590;-67
2023/04/07 09:58:42;;;;;;;;;10.00;9.25;;;;;13.63;54.51;101474.50;6275883;22;46536;-69
2023/04/07 10:01:08;;;;;;;;;9.50;7.50;;;;;13.63;54.24;101463.78;6248537;22;45283;-68
2023/04/07 10:03:35;;;;;;;;;8.50;7.00;;;;;13.35;53.95;101421.81;6276966;22;45359;-68
2023/04/07 10:06:00;;;;;;;;;8.00;6.75;;;;;13.67;53.58;101463.63;6276386;22;45331;-68
2023/04/07 10:08:27;;;;;;;;;5.00;3.25;;;;;13.76;53.34;101475.84;6276189;22;46192;-68
2023/04/07 10:10:57;;;;;;;;;13.00;6.50;;;;;13.77;53.39;101484.81;6276385;22;45271;-69
2023/04/07 10:13:24;;;;;;;;;7.75;7.25;;;;;13.79;53.55;101486.50;6275913;22;45300;-68
2023/04/07 10:15:51;;;;;;;;;8.00;8.00;;;;;13.86;53.50;101488.03;6275810;22;45318;-68
2023/04/07 10:18:19;;;;;;;;;9.50;7.75;;;;;13.97;53.74;101487.69;6277329;22;45427;-65
2023/04/07 10:20:51;;;;;;;;;11.00;7.50;;;;;13.78;53.50;101455.25;6277711;22;45572;-65
2023/04/07 10:23:37;;;;;;;;;7.25;7.25;;;;;14.04;53.17;101481.16;6250161;22;45507;-68
2023/04/07 10:26:05;;;;;;;;;9.25;6.00;;;;;14.02;53.11;101483.03;6278070;22;45186;-68
2023/04/07 10:28:37;;;;;;;;;6.00;6.00;;;;;13.90;52.62;101457.47;6277257;22;46303;-68
2023/04/07 10:31:03;;;;;;;;;8.25;7.00;;;;;14.01;52.67;101483.06;6277532;22;45255;-68
2023/04/07 10:33:51;;;;;;;;;9.00;7.00;;;;;14.00;52.45;101474.16;6275735;22;45258;-68
2023/04/07 10:36:20;;;;;;;;;9.00;6.00;;;;;13.88;52.04;101454.00;6275232;22;45301;-69
2023/04/07 10:39:08;;;;;;;;;6.50;6.00;;;;;14.09;52.33;101486.38;6276989;22;45755;-67
2023/04/07 10:41:45;;;;;;;;;6.00;6.00;;;;;14.00;52.53;101470.56;6249653;22;45568;-71
2023/04/07 10:44:40;;;;;;;;;8.50;6.25;;;;;14.09;51.72;101484.56;6276631;22;45603;-83
2023/04/07 10:47:06;;;;;;;;;5.75;5.25;;;;;14.05;51.23;101477.56;6276946;22;45198;-72
2023/04/07 10:49:33;;;;;;;;;7.00;5.25;;;;;14.11;51.10;101462.16;6276363;22;45543;-72
2023/04/07 10:52:11;;;;;;;;;5.00;4.75;;;;;14.19;50.93;101466.31;6250121;22;46038;-72
2023/04/07 10:54:37;;;;;;;;;8.25;5.50;;;;;14.27;50.91;101477.66;6250212;22;45363;-72
2023/04/07 10:57:02;;;;;;;;;6.00;5.00;;;;;14.31;49.88;101467.66;6249343;22;45434;-72
2023/04/07 10:59:28;;;;;;;;;7.25;6.00;;;;;14.29;49.94;101458.81;6276316;22;46316;-71
2023/04/07 11:02:16;;;;;;;;;4.00;4.00;;;;;14.44;49.85;101468.97;6248780;22;45968;-71
2023/04/07 11:04:44;;;;;;;;;5.00;5.00;;;;;14.27;49.33;101437.38;6249523;22;45315;-71
2023/04/07 11:07:13;;;;;;;;;7.50;4.00;;;;;14.50;48.48;101464.31;6249885;22;45340;-70
2023/04/07 11:09:41;;;;;;;;;5.50;5.50;;;;;14.27;48.41;101426.63;6277578;22;45360;-71
2023/04/07 11:12:08;;;;;;;;;4.75;4.75;;;;;14.49;48.79;101457.19;6277120;22;45228;-71
2023/04/07 11:14:36;;;;;;;;;5.75;5.75;;;;;14.51;48.75;101452.63;6249751;22;45484;-71
2023/04/07 11:17:02;;;;;;;;;4.25;4.25;;;;;14.53;48.47;101458.81;6277288;22;45477;-71
2023/04/07 11:19:28;;;;;;;;;3.75;3.75;;;;;14.60;48.07;101479.19;6277832;22;45244;-71
2023/04/07 11:22:14;;;;;;;;;5.50;4.00;;;;;14.59;47.90;101469.38;6249130;22;45572;-71